Time;durP1;ratioP1;P1;durP2;ratioP2;P2;SDS_P1;SDS_P2;PMS_P1;PMS_P2;Temp;Humidity;BMP_temperature;BMP_pressure;BME280_temperature;BME280_humidity;BME280_pressure;Samples;Min_cycle;Max_cycle;Signal;HPM_P1;HPM_P2
2023/05/27 00:01:53;;;;;;;5.13;4.73;;;;;;;20.93;50.22;95152.75;5969771;29;109082;-62
2023/05/27 00:04:56;;;;;;;5.90;5.30;;;;;;;20.89;50.43;95149.88;5971896;29;109131;-64
2023/05/27 00:07:59;;;;;;;5.80;5.30;;;;;;;20.91;50.64;95152.25;5973987;29;109171;-64
2023/05/27 00:11:02;;;;;;;5.90;5.30;;;;;;;20.86;50.84;95147.03;5963466;29;109137;-64
2023/05/27 00:14:05;;;;;;;5.50;5.00;;;;;;;20.87;50.33;95148.59;5973507;29;109133;-63
2023/05/27 00:17:13;;;;;;;4.50;4.10;;;;;;;20.89;50.48;95154.41;5973461;29;109169;-64
2023/05/27 00:20:16;;;;;;;4.50;4.20;;;;;;;20.90;50.41;95151.47;5967900;29;109098;-64
2023/05/27 00:23:19;;;;;;;5.17;4.77;;;;;;;20.88;50.21;95140.31;5968232;29;109098;-64
2023/05/27 00:26:22;;;;;;;6.07;4.97;;;;;;;20.84;50.26;95134.03;5973219;29;109163;-63
2023/05/27 00:29:26;;;;;;;5.47;5.07;;;;;;;20.84;50.87;95139.34;5973184;29;109195;-64
2023/05/27 00:32:30;;;;;;;4.80;4.30;;;;;;;20.86;50.47;95137.19;5962684;29;109121;-64
2023/05/27 00:35:33;;;;;;;4.90;4.33;;;;;;;20.86;50.97;95136.41;5973303;29;109287;-63
2023/05/27 00:38:37;;;;;;;5.27;4.77;;;;;;;20.88;50.94;95132.34;5973173;29;109735;-63
2023/05/27 00:41:48;;;;;;;5.13;4.37;;;;;;;20.84;51.06;95127.91;5973151;29;110026;-62
2023/05/27 00:44:51;;;;;;;5.53;4.80;;;;;;;20.84;51.12;95111.97;5962989;29;109248;-62
2023/05/27 00:47:56;;;;;;;4.70;4.33;;;;;;;20.85;51.03;95109.00;5972528;29;109942;-62
2023/05/27 00:51:02;;;;;;;4.10;3.80;;;;;;;20.84;50.94;95104.00;5972994;29;109144;-62
2023/05/27 00:54:06;;;;;;;4.80;4.40;;;;;;;20.83;50.80;95105.81;5969589;29;109132;-63
2023/05/27 00:57:09;;;;;;;4.83;4.00;;;;;;;20.85;51.00;95097.59;5952175;29;108977;-64
2023/05/27 01:00:13;;;;;;;4.00;3.70;;;;;;;20.84;50.61;95088.81;5967544;29;109112;-64
2023/05/27 01:03:20;;;;;;;4.27;3.77;;;;;;;20.81;51.10;95092.03;5972611;29;108930;-65
2023/05/27 01:06:32;;;;;;;3.47;3.20;;;;;;;20.84;50.90;95088.03;5962677;29;109028;-64
2023/05/27 01:09:43;;;;;;;3.50;3.20;;;;;;;20.81;51.13;95084.06;5973072;29;109265;-64
2023/05/27 01:12:52;;;;;;;3.10;2.90;;;;;;;20.79;51.18;95070.28;5972674;29;110221;-64
2023/05/27 01:15:59;;;;;;;2.53;2.33;;;;;;;20.83;50.91;95067.81;5971410;29;109121;-64
2023/05/27 01:19:09;;;;;;;3.13;2.53;;;;;;;20.80;50.98;95069.19;5962191;29;108690;-65
2023/05/27 01:22:13;;;;;;;2.83;2.63;;;;;;;20.82;51.27;95067.03;5971483;29;109219;-65
2023/05/27 01:25:18;;;;;;;2.53;2.33;;;;;;;20.79;51.58;95056.19;5971950;29;109109;-65
2023/05/27 01:28:21;;;;;;;4.50;2.57;;;;;;;20.78;51.66;95052.75;5967254;29;110084;-64
2023/05/27 01:31:30;;;;;;;2.77;2.20;;;;;;;20.82;51.41;95055.59;5966768;29;109309;-65
2023/05/27 01:34:41;;;;;;;3.93;2.13;;;;;;;20.80;51.29;95050.56;5972019;29;109448;-65
2023/05/27 01:37:45;;;;;;;2.37;2.17;;;;;;;20.75;51.55;95045.38;5971877;29;109696;-65
2023/05/27 01:40:51;;;;;;;2.60;2.40;;;;;;;20.75;51.87;95039.25;5962089;29;109080;-65
2023/05/27 01:43:55;;;;;;;2.73;2.53;;;;;;;20.77;51.78;95040.53;5972082;29;109108;-65
2023/05/27 01:47:02;;;;;;;3.20;2.73;;;;;;;20.73;51.98;95030.81;5971887;29;109092;-65
2023/05/27 01:50:06;;;;;;;3.10;2.90;;;;;;;20.73;51.81;95036.91;5971435;29;109482;-65
2023/05/27 01:53:11;;;;;;;2.90;2.70;;;;;;;20.69;51.96;95035.13;5961487;29;109171;-65
2023/05/27 01:56:16;;;;;;;2.90;2.70;;;;;;;20.70;51.92;95042.81;5971448;29;109543;-65
2023/05/27 01:59:19;;;;;;;3.10;2.90;;;;;;;20.74;51.90;95041.13;5971703;29;108998;-65
2023/05/27 02:02:22;;;;;;;3.10;2.90;;;;;;;20.73;51.82;95050.19;5967065;29;110117;-65
2023/05/27 02:05:25;;;;;;;3.47;3.20;;;;;;;20.74;51.58;95051.78;5966278;29;110435;-69
2023/05/27 02:08:28;;;;;;;3.33;3.00;;;;;;;20.59;51.97;95054.72;5969811;29;109364;-68
2023/05/27 02:11:33;;;;;;;3.30;3.10;;;;;;;20.49;52.09;95041.63;5970302;29;110187;-69
2023/05/27 02:14:38;;;;;;;3.38;3.17;;;;;;;20.50;52.34;95048.50;5959611;29;109090;-69
2023/05/27 02:17:44;;;;;;;3.88;3.47;;;;;;;20.46;52.50;95048.31;5969720;29;109108;-69
2023/05/27 02:20:48;;;;;;;3.50;3.20;;;;;;;20.46;52.10;95039.56;5969021;29;109422;-69
2023/05/27 02:23:51;;;;;;;3.50;3.30;;;;;;;20.46;52.29;95044.88;5969592;29;109228;-69
2023/05/27 02:26:56;;;;;;;3.90;3.60;;;;;;;20.44;52.56;95039.84;5959683;29;109360;-69
2023/05/27 02:29:59;;;;;;;3.80;3.50;;;;;;;20.44;52.37;95052.34;5969713;29;109467;-69
2023/05/27 02:33:02;;;;;;;3.45;3.15;;;;;;;20.43;51.85;95056.09;5969615;29;109098;-69
2023/05/27 02:36:06;;;;;;;4.27;3.60;;;;;;;20.44;52.12;95045.16;5969413;29;109356;-69
2023/05/27 02:39:10;;;;;;;3.40;3.10;;;;;;;20.44;52.39;95052.34;5958842;29;109188;-69
2023/05/27 02:42:14;;;;;;;4.40;3.42;;;;;;;20.44;52.55;95052.34;5969624;29;109044;-69
2023/05/27 02:45:17;;;;;;;3.20;2.90;;;;;;;20.40;52.54;95041.53;5969478;29;109127;-69
2023/05/27 02:48:21;;;;;;;3.65;3.20;;;;;;;20.41;52.57;95048.41;5962830;29;112370;-67
2023/05/27 02:51:24;;;;;;;4.00;3.40;;;;;;;20.43;52.36;95050.78;5967021;29;109113;-69
2023/05/27 02:54:27;;;;;;;3.90;3.33;;;;;;;20.39;52.58;95047.94;5969702;29;112586;-69
2023/05/27 02:57:32;;;;;;;3.50;3.20;;;;;;;20.42;52.31;95042.03;5968917;29;109073;-68
2023/05/27 03:00:35;;;;;;;3.30;3.00;;;;;;;20.45;52.49;95040.63;5959034;29;109187;-69
2023/05/27 03:03:38;;;;;;;4.00;2.67;;;;;;;20.45;52.27;95044.09;5969483;29;110615;-69
2023/05/27 03:06:42;;;;;;;2.80;2.60;;;;;;;20.42;52.36;95038.56;5969857;29;109222;-69
2023/05/27 03:09:45;;;;;;;2.65;2.40;;;;;;;20.45;52.01;95044.09;5969344;29;109376;-69
2023/05/27 03:12:52;;;;;;;2.60;2.40;;;;;;;20.47;52.24;95043.78;5958489;29;109104;-69
2023/05/27 03:15:56;;;;;;;2.75;2.45;;;;;;;20.43;52.20;95042.81;5969434;29;108773;-62
2023/05/27 03:18:59;;;;;;;2.90;2.42;;;;;;;20.42;52.00;95046.56;5968760;29;109258;-62
2023/05/27 03:22:02;;;;;;;2.50;2.30;;;;;;;20.40;52.34;95048.72;5963339;29;110168;-62
2023/05/27 03:25:06;;;;;;;2.30;2.10;;;;;;;20.41;52.07;95050.28;5963021;29;109217;-62
2023/05/27 03:28:11;;;;;;;3.30;2.50;;;;;;;20.39;52.21;95055.13;5968765;29;110185;-63
2023/05/27 03:31:14;;;;;;;2.90;2.40;;;;;;;20.36;52.21;95043.22;5968892;29;109152;-63
2023/05/27 03:34:18;;;;;;;3.00;2.70;;;;;;;20.37;52.46;95055.41;5957885;29;109238;-62
2023/05/27 03:37:21;;;;;;;3.58;2.65;;;;;;;20.41;52.30;95060.91;5968662;29;109235;-63
2023/05/27 03:40:25;;;;;;;4.65;4.25;;;;;;;20.37;52.23;95060.72;5971910;29;109124;-63
2023/05/27 03:43:29;;;;;;;4.93;4.53;;;;;;;20.39;52.14;95057.78;5962320;29;109241;-62
2023/05/27 03:46:32;;;;;;;10.17;9.37;;;;;;;20.40;52.41;95065.44;5939753;29;109286;-64
2023/05/27 03:49:36;;;;;;;6.88;6.28;;;;;;;20.39;52.61;95061.22;5949912;29;109321;-64
2023/05/27 03:52:39;;;;;;;6.05;5.55;;;;;;;20.43;52.68;95061.41;5949416;29;110234;-62
2023/05/27 03:55:42;;;;;;;7.82;7.22;;;;;;;20.42;52.30;95067.81;5949603;29;109229;-63
2023/05/27 03:58:46;;;;;;;7.00;6.40;;;;;;;20.41;52.29;95066.25;5938617;29;109379;-62
2023/05/27 04:01:50;;;;;;;8.20;7.50;;;;;;;20.38;52.25;95058.84;5949374;29;112077;-62
2023/05/27 04:04:53;;;;;;;8.30;7.60;;;;;;;20.40;52.43;95067.31;5949534;29;109096;-62
2023/05/27 04:07:56;;;;;;;6.50;5.90;;;;;;;20.41;52.49;95077.66;5941555;29;110909;-63
2023/05/27 04:11:00;;;;;;;5.82;5.05;;;;;;;20.35;52.66;95070.88;5947674;29;109139;-63
2023/05/27 04:14:06;;;;;;;5.60;5.10;;;;;;;20.41;52.51;95074.22;5949536;29;108999;-63
2023/05/27 04:17:09;;;;;;;4.43;4.03;;;;;;;20.41;52.88;95079.53;5949286;29;109110;-63
2023/05/27 04:20:14;;;;;;;4.68;3.90;;;;;;;20.38;52.96;95075.59;5938227;29;109313;-63
2023/05/27 04:23:18;;;;;;;4.53;4.10;;;;;;;20.39;53.00;95065.75;5960625;29;109449;-63
2023/05/27 04:26:21;;;;;;;13.00;11.90;;;;;;;20.44;52.62;95063.78;5971870;29;109604;-63
2023/05/27 04:29:27;;;;;;;13.00;11.90;;;;;;;20.43;52.81;95058.75;5972181;29;112320;-63
2023/05/27 04:32:32;;;;;;;7.30;6.60;;;;;;;20.41;53.00;95063.59;5961182;29;110005;-62
2023/05/27 04:35:35;;;;;;;5.82;5.43;;;;;;;20.42;53.15;95068.59;5971623;29;109544;-62
2023/05/27 04:38:39;;;;;;;5.80;5.40;;;;;;;20.41;53.35;95067.03;5971635;29;109642;-64
2023/05/27 04:41:42;;;;;;;6.57;5.20;;;;;;;20.42;53.34;95076.56;5966251;29;109349;-62
2023/05/27 04:44:48;;;;;;;5.20;4.70;;;;;;;20.41;53.32;95074.22;5966344;29;108843;-62
2023/05/27 04:47:51;;;;;;;5.18;4.68;;;;;;;20.43;52.99;95077.34;5972151;29;109207;-62
2023/05/27 04:50:56;;;;;;;5.00;4.60;;;;;;;20.43;53.12;95075.50;5971321;29;110109;-61
2023/05/27 04:53:59;;;;;;;6.45;5.25;;;;;;;20.41;53.01;95071.56;5960043;29;109057;-62
2023/05/27 04:57:03;;;;;;;8.47;7.77;;;;;;;20.43;53.45;95072.84;5971155;29;109136;-64
2023/05/27 05:00:34;;;;;;;7.57;6.83;;;;;;;20.45;53.50;95075.97;5962099;29;111039;-61
2023/05/27 05:03:50;;;;;;;5.90;5.40;;;;;;;20.45;53.18;95075.97;5971317;29;109638;-65
2023/05/27 05:06:55;;;;;;;5.70;5.20;;;;;;;20.49;53.44;95078.84;5960796;29;109307;-62
2023/05/27 05:09:58;;;;;;;5.88;5.22;;;;;;;20.46;53.55;95087.41;5971095;29;109281;-63
2023/05/27 05:13:01;;;;;;;5.03;4.63;;;;;;;20.48;53.39;95086.03;5971074;29;109129;-62
2023/05/27 05:16:06;;;;;;;4.90;4.40;;;;;;;20.46;53.45;95087.41;5964379;29;109307;-64
2023/05/27 05:19:10;;;;;;;7.50;6.90;;;;;;;20.46;53.77;95085.53;5969388;29;109468;-63
2023/05/27 05:22:13;;;;;;;9.20;8.30;;;;;;;20.47;53.65;95075.69;5970347;29;109641;-63
2023/05/27 05:25:16;;;;;;;8.97;8.17;;;;;;;20.51;53.82;95082.00;5970402;29;109084;-62
2023/05/27 05:28:20;;;;;;;9.00;8.10;;;;;;;20.52;53.46;95089.69;5960135;29;109107;-63
2023/05/27 05:31:24;;;;;;;9.50;8.60;;;;;;;20.56;53.59;95090.66;5960340;29;109543;-62
2023/05/27 05:34:27;;;;;;;10.57;9.67;;;;;;;20.59;53.60;95087.41;5947736;29;109346;-63
2023/05/27 05:37:31;;;;;;;10.40;9.50;;;;;;;20.57;54.26;95086.13;5948166;29;109476;-62
2023/05/27 05:40:34;;;;;;;9.60;8.80;;;;;;;20.57;54.04;95086.94;5937578;29;109018;-62
2023/05/27 05:43:37;;;;;;;8.80;8.00;;;;;;;20.57;54.20;95099.44;5947825;29;109409;-62
2023/05/27 05:46:42;;;;;;;12.55;11.35;;;;;;;20.60;53.61;95093.53;5947713;29;109039;-63
2023/05/27 05:49:45;;;;;;;15.02;13.52;;;;;;;20.63;53.58;95098.25;5943075;29;109284;-64
2023/05/27 05:52:48;;;;;;;20.10;18.30;;;;;;;20.66;54.03;95104.84;5941703;29;109819;-62
2023/05/27 05:55:51;;;;;;;21.83;19.90;;;;;;;20.63;54.01;95099.03;5947778;29;108703;-62
2023/05/27 05:58:55;;;;;;;18.65;17.05;;;;;;;20.66;54.03;95102.97;5947443;29;108993;-63
2023/05/27 06:01:59;;;;;;;13.20;12.00;;;;;;;20.68;53.59;95106.16;5936928;29;109128;-64
2023/05/27 06:05:02;;;;;;;12.55;11.45;;;;;;;20.71;54.06;95113.53;5947561;29;109621;-64
2023/05/27 06:08:06;;;;;;;14.20;13.00;;;;;;;20.68;53.72;95114.13;5947596;29;109385;-63
2023/05/27 06:11:10;;;;;;;16.40;15.00;;;;;;;20.74;53.42;95112.94;5947324;29;109285;-63
2023/05/27 06:14:13;;;;;;;21.10;19.30;;;;;;;20.74;53.47;95120.13;5936026;29;109149;-63
2023/05/27 06:17:17;;;;;;;19.63;17.83;;;;;;;20.75;53.76;95121.69;5948037;29;109324;-63
2023/05/27 06:20:22;;;;;;;16.40;15.00;;;;;;;20.73;53.98;95118.56;5946594;29;109071;-63
2023/05/27 06:23:25;;;;;;;12.33;11.23;;;;;;;20.73;53.66;95119.34;5959289;29;110403;-64
2023/05/27 06:26:28;;;;;;;12.50;11.40;;;;;;;20.69;53.87;95115.69;5959255;29;109567;-63
2023/05/27 06:29:32;;;;;;;9.60;8.70;;;;;;;20.73;53.95;95121.22;5970169;29;111749;-63
2023/05/27 06:32:36;;;;;;;8.13;7.32;;;;;;;20.73;53.78;95119.34;5969730;29;109171;-64
2023/05/27 06:35:39;;;;;;;6.67;6.17;;;;;;;20.72;53.43;95122.28;5961760;29;109190;-65
2023/05/27 06:38:42;;;;;;;7.20;6.50;;;;;;;20.70;53.53;95127.91;5968328;29;109324;-63
2023/05/27 06:41:45;;;;;;;7.50;6.80;;;;;;;20.71;53.64;95134.81;5969791;29;110179;-63
2023/05/27 06:44:49;;;;;;;7.25;6.55;;;;;;;20.69;53.78;95136.97;5969448;29;109712;-63
2023/05/27 06:47:53;;;;;;;9.90;7.47;;;;;;;20.69;53.75;95131.66;5959624;29;109105;-69
2023/05/27 06:50:57;;;;;;;7.80;7.00;;;;;;;20.72;53.69;95133.72;5969709;29;109510;-69
2023/05/27 06:54:00;;;;;;;7.30;6.70;;;;;;;20.73;54.01;95137.16;5969465;29;108898;-69
2023/05/27 06:57:04;;;;;;;8.55;7.75;;;;;;;20.74;53.76;95141.41;5968785;29;109404;-70
2023/05/27 07:00:09;;;;;;;9.07;8.17;;;;;;;20.74;54.06;95144.06;5958641;29;110473;-69
2023/05/27 07:03:14;;;;;;;7.10;6.50;;;;;;;20.71;54.40;95139.34;5968892;29;109165;-69
2023/05/27 07:06:17;;;;;;;7.10;6.38;;;;;;;20.72;54.34;95139.03;5969223;29;110123;-69
2023/05/27 07:09:21;;;;;;;7.93;7.22;;;;;;;20.72;53.75;95131.06;5964250;29;109181;-68
2023/05/27 07:12:24;;;;;;;6.60;6.10;;;;;;;20.74;54.50;95139.53;5963387;29;109156;-69
2023/05/27 07:15:28;;;;;;;5.93;5.43;;;;;;;20.75;54.42;95137.66;5968180;29;109979;-70
2023/05/27 07:18:32;;;;;;;6.90;5.77;;;;;;;20.73;54.43;95145.13;5969084;29;108907;-69
2023/05/27 07:21:36;;;;;;;6.70;6.00;;;;;;;20.76;54.03;95142.69;5958046;29;111226;-69
2023/05/27 07:24:40;;;;;;;6.82;6.22;;;;;;;20.76;54.17;95137.34;5968753;29;109123;-73
2023/05/27 07:27:43;;;;;;;8.30;7.60;;;;;;;20.77;54.22;95136.28;5968801;29;109143;-68
2023/05/27 07:30:46;;;;;;;9.40;8.40;;;;;;;20.81;54.10;95139.13;5969121;29;110669;-69
2023/05/27 07:33:50;;;;;;;8.18;7.38;;;;;;;20.85;54.23;95145.47;5958155;29;109129;-68
2023/05/27 07:36:54;;;;;;;8.85;6.60;;;;;;;20.85;54.39;95146.25;5968402;29;109110;-68
2023/05/27 07:39:57;;;;;;;7.60;6.80;;;;;;;20.85;54.21;95142.78;5968979;29;109191;-66
2023/05/27 07:43:00;;;;;;;9.13;7.55;;;;;;;20.88;53.96;95145.66;5968485;29;110198;-68
2023/05/27 07:46:04;;;;;;;8.38;7.57;;;;;;;20.89;54.01;95147.22;5959900;29;109271;-67
2023/05/27 07:49:08;;;;;;;8.33;6.33;;;;;;;20.92;54.09;95143.19;5969009;29;111164;-68
2023/05/27 07:52:12;;;;;;;7.17;6.47;;;;;;;;;;5968322;29;109416;-68
2023/05/27 07:55:15;;;;;;;9.20;8.30;;;;;;;20.98;54.27;95154.50;5959867;29;109927;-66
2023/05/27 07:58:18;;;;;;;11.30;10.40;;;;;;;20.99;53.78;95148.09;5967545;29;109465;-62
2023/05/27 08:01:21;;;;;;;9.00;8.10;;;;;;;21.00;54.08;95155.00;5968080;29;109114;-62
2023/05/27 08:04:26;;;;;;;8.55;7.63;;;;;;;21.01;54.00;95151.28;5968372;29;109122;-63
2023/05/27 08:07:29;;;;;;;8.00;7.25;;;;;;;20.99;54.10;95151.53;5957805;29;110183;-65
2023/05/27 08:10:32;;;;;;;10.20;9.15;;;;;;;21.01;53.88;95154.72;5967833;29;108979;-65
2023/05/27 08:13:35;;;;;;;9.20;8.40;;;;;;;21.01;53.82;95159.25;5968433;29;111332;-65
2023/05/27 08:16:39;;;;;;;10.47;9.37;;;;;;;21.02;53.37;95153.63;5968116;29;109090;-64
2023/05/27 08:19:45;;;;;;;10.17;9.17;;;;;;;21.02;54.13;95161.63;5957079;29;109361;-66
2023/05/27 08:22:48;;;;;;;32.13;29.15;;;;;;;21.03;53.47;95157.88;5967870;29;109128;-64
2023/05/27 08:25:51;;;;;;;26.15;23.90;;;;;;;21.01;53.60;95154.72;5970169;29;109047;-66
2023/05/27 08:28:55;;;;;;;17.33;15.83;;;;;;;21.01;53.76;95148.63;5967072;29;109421;-65
2023/05/27 08:31:58;;;;;;;14.98;13.57;;;;;;;21.01;53.43;95160.03;5966137;29;109027;-65
2023/05/27 08:35:03;;;;;;;14.67;12.90;;;;;;;20.99;53.60;95154.22;5972042;29;109398;-66
2023/05/27 08:38:07;;;;;;;13.05;11.98;;;;;;;21.03;53.50;95162.41;5971862;29;109223;-66
2023/05/27 08:41:11;;;;;;;14.10;12.82;;;;;;;21.02;53.24;95160.84;5961483;29;110204;-65
2023/05/27 08:44:14;;;;;;;15.27;13.88;;;;;;;21.01;53.44;95160.03;5971753;29;109448;-65
2023/05/27 08:47:20;;;;;;;15.60;14.23;;;;;;;21.01;53.23;95153.94;5968155;29;108985;-66
2023/05/27 08:50:25;;;;;;;15.60;14.20;;;;;;;21.03;53.38;95152.56;5971786;29;109108;-65
2023/05/27 08:53:29;;;;;;;23.02;20.92;;;;;;;21.01;52.87;95145.97;5961045;29;109248;-65
2023/05/27 08:56:34;;;;;;;20.02;18.33;;;;;;;21.01;53.34;95148.63;5971569;29;109133;-65
2023/05/27 08:59:38;;;;;;;20.80;19.02;;;;;;;21.02;53.53;95142.22;5971134;29;109437;-65
2023/05/27 09:02:41;;;;;;;14.52;13.30;;;;;;;21.04;53.63;95148.81;5968424;29;108969;-65
2023/05/27 09:05:46;;;;;;;13.30;12.20;;;;;;;21.06;53.50;95145.88;5966481;29;112401;-65
2023/05/27 09:08:49;;;;;;;14.13;12.93;;;;;;;21.07;53.62;95142.13;5971496;29;109464;-64
2023/05/27 09:11:58;;;;;;;13.35;12.15;;;;;;;21.06;53.39;95136.03;5971377;29;109154;-65
2023/05/27 09:15:02;;;;;;;12.77;11.73;;;;;;;21.07;53.19;95131.50;5962070;29;111186;-65
2023/05/27 09:18:06;;;;;;;13.90;12.70;;;;;;;21.14;53.30;95137.19;5971249;29;109428;-63
2023/05/27 09:21:11;;;;;;;14.50;13.20;;;;;;;21.16;53.44;95145.66;5970742;29;109191;-63
2023/05/27 09:24:14;;;;;;;14.20;13.00;;;;;;;21.18;53.46;95135.53;5971014;29;110195;-63
2023/05/27 09:27:18;;;;;;;18.35;16.75;;;;;;;21.24;53.59;95139.66;5961531;29;110127;-63
2023/05/27 09:30:22;;;;;;;15.23;13.85;;;;;;;21.25;53.41;95138.56;5970794;29;109217;-63
2023/05/27 09:33:26;;;;;;;16.27;14.88;;;;;;;21.25;53.53;95127.13;5970986;29;109398;-64
2023/05/27 09:36:31;;;;;;;15.83;14.53;;;;;;;21.29;53.31;95125.44;5969893;29;109331;-63
2023/05/27 09:39:35;;;;;;;16.17;14.68;;;;;;;21.34;52.95;95126.16;5959584;29;109452;-63
2023/05/27 09:42:43;;;;;;;16.60;15.20;;;;;;;21.36;53.15;95129.28;5970221;29;109073;-62
2023/05/27 09:45:47;;;;;;;16.03;14.73;;;;;;;21.39;53.03;95125.25;5970515;29;109069;-63
2023/05/27 09:48:50;;;;;;;15.52;14.30;;;;;;;21.39;52.63;95125.25;5962225;29;110038;-64
2023/05/27 09:51:57;;;;;;;15.18;13.88;;;;;;;21.41;52.63;95121.19;5969780;29;109327;-62
2023/05/27 09:55:00;;;;;;;15.32;14.02;;;;;;;21.44;52.53;95117.94;5970462;29;109553;-62
2023/05/27 09:58:03;;;;;;;14.10;13.00;;;;;;;21.50;52.80;95113.28;5970498;29;109703;-63
2023/05/27 10:01:07;;;;;;;16.13;14.83;;;;;;;21.55;52.61;95115.06;5959690;29;109471;-63
2023/05/27 10:04:11;;;;;;;15.80;14.40;;;;;;;21.57;52.81;95115.53;5970297;29;109128;-63
2023/05/27 10:07:20;;;;;;;15.50;14.20;;;;;;;21.58;52.41;95115.25;5970131;29;109009;-63
2023/05/27 10:10:34;;;;;;;14.63;13.38;;;;;;;21.62;52.70;95120.75;5970225;29;109021;-63
2023/05/27 10:13:38;;;;;;;14.73;13.43;;;;;;;21.64;52.59;95121.22;5959747;29;109516;-64
2023/05/27 10:16:53;;;;;;;14.00;12.80;;;;;;;21.63;51.97;95122.31;5970170;29;110176;-63
2023/05/27 10:19:57;;;;;;;12.70;11.70;;;;;;;21.62;52.37;95116.22;5969318;29;109386;-63
2023/05/27 10:23:12;;;;;;;13.13;12.03;;;;;;;21.60;52.39;95113.06;5960413;29;110284;-64
2023/05/27 10:26:16;;;;;;;11.82;10.73;;;;;;;21.60;51.98;95114.94;5969636;29;109087;-66
2023/05/27 10:29:19;;;;;;;10.10;9.30;;;;;;;21.58;51.90;95109.13;5969832;29;109101;-64
2023/05/27 10:32:22;;;;;;;10.55;9.75;;;;;;;21.59;52.27;95110.69;5969728;29;109112;-66
2023/05/27 10:35:27;;;;;;;9.70;8.80;;;;;;;21.58;51.63;95115.25;5959905;29;111342;-64
2023/05/27 10:38:31;;;;;;;9.60;8.80;;;;;;;21.59;51.53;95098.16;5969358;29;109080;-65
2023/05/27 10:41:41;;;;;;;9.33;8.63;;;;;;;21.61;51.84;95097.88;5969749;29;109080;-66
2023/05/27 10:44:44;;;;;;;9.10;8.30;;;;;;;21.55;51.81;95083.88;5969017;29;109225;-67
2023/05/27 10:47:48;;;;;;;8.63;7.93;;;;;;;21.62;51.91;95089.56;5958738;29;109225;-65
2023/05/27 10:50:52;;;;;;;8.90;8.20;;;;;;;21.62;51.95;95094.91;5969627;29;109168;-64
2023/05/27 10:53:57;;;;;;;8.27;7.57;;;;;;;21.60;51.63;95094.41;5969632;29;109605;-64
2023/05/27 10:57:22;;;;;;;8.50;7.70;;;;;;;21.60;51.89;95089.09;5958798;29;108802;-64
2023/05/27 11:00:27;;;;;;;8.35;7.65;;;;;;;21.57;51.91;95091.56;5969102;29;108880;-64
2023/05/27 11:03:31;;;;;;;8.10;7.30;;;;;;;21.58;52.12;95090.47;5969036;29;109337;-65
2023/05/27 11:06:34;;;;;;;8.23;7.43;;;;;;;21.57;51.89;95086.25;5969515;29;109079;-65
2023/05/27 11:09:45;;;;;;;8.57;7.78;;;;;;;21.57;51.84;95076.38;5959183;29;109829;-65
2023/05/27 11:12:49;;;;;;;8.30;7.60;;;;;;;21.56;51.70;95077.47;5969140;29;109378;-64
2023/05/27 11:15:52;;;;;;;8.07;7.40;;;;;;;21.58;51.74;95075.28;5969009;29;109105;-64
2023/05/27 11:18:55;;;;;;;8.63;7.82;;;;;;;21.57;51.87;95071.06;5968600;29;109107;-64
2023/05/27 11:21:58;;;;;;;8.20;7.40;;;;;;;21.54;51.85;95066.34;5958525;29;109444;-65
2023/05/27 11:25:05;;;;;;;7.83;7.23;;;;;;;21.56;51.94;95074.03;5968707;29;109087;-64
2023/05/27 11:28:14;;;;;;;6.60;6.13;;;;;;;21.54;51.58;95063.69;5969006;29;110128;-64
2023/05/27 11:31:19;;;;;;;7.03;6.50;;;;;;;21.59;51.65;95062.75;5959036;29;109098;-64
2023/05/27 11:34:23;;;;;;;7.00;6.40;;;;;;;21.63;51.47;95058.41;5968068;29;109143;-64
2023/05/27 11:37:32;;;;;;;7.15;6.55;;;;;;;21.65;51.67;95058.88;5968789;29;108936;-63
2023/05/27 11:40:38;;;;;;;7.40;6.80;;;;;;;21.66;51.49;95055.13;5968594;29;109111;-62
2023/05/27 11:43:48;;;;;;;7.40;6.80;;;;;;;21.65;51.87;95048.22;5958369;29;111205;-61
2023/05/27 11:46:53;;;;;;;7.30;6.70;;;;;;;21.64;51.70;95042.13;5968562;29;109065;-62
2023/05/27 11:49:57;;;;;;;6.80;6.20;;;;;;;21.62;51.53;95048.84;5968757;29;109119;-61
2023/05/27 11:53:04;;;;;;;6.35;5.80;;;;;;;21.63;51.74;95042.44;5968410;29;109193;-61
2023/05/27 11:56:08;;;;;;;7.00;6.50;;;;;;;21.62;51.53;95035.53;5960987;29;109228;-62
2023/05/27 11:59:13;;;;;;;6.50;6.00;;;;;;;21.63;51.15;95042.44;5968259;29;109077;-60
2023/05/27 12:02:16;;;;;;;6.22;5.72;;;;;;;21.64;51.17;95028.03;5972353;29;109159;-61
2023/05/27 12:05:20;;;;;;;6.28;5.70;;;;;;;21.65;51.22;95024.25;5962236;29;110525;-62
2023/05/27 12:08:38;;;;;;;6.07;5.57;;;;;;;21.62;51.09;95022.22;5972387;29;109345;-61
2023/05/27 12:11:42;;;;;;;6.18;5.78;;;;;;;21.64;51.49;95022.69;5972326;29;109842;-62
2023/05/27 12:14:46;;;;;;;5.80;5.40;;;;;;;21.66;51.09;95021.31;5972215;29;109678;-61
2023/05/27 12:17:49;;;;;;;6.00;5.50;;;;;;;21.64;51.54;95020.03;5961659;29;109414;-61
2023/05/27 12:20:52;;;;;;;6.00;5.60;;;;;;;21.59;51.26;95004.97;5971568;29;108789;-60
2023/05/27 12:23:56;;;;;;;5.87;5.40;;;;;;;21.62;51.35;95007.03;5971892;29;109336;-60
2023/05/27 12:27:01;;;;;;;6.30;5.80;;;;;;;21.63;50.90;95005.16;5972369;29;108954;-61
2023/05/27 12:30:05;;;;;;;5.68;5.18;;;;;;;21.63;51.23;94999.81;5961952;29;112404;-61
2023/05/27 12:33:09;;;;;;;5.90;5.50;;;;;;;21.62;51.31;94999.03;5971972;29;110114;-61
2023/05/27 12:36:12;;;;;;;6.13;5.63;;;;;;;21.61;50.98;94991.34;5971682;29;109273;-60
2023/05/27 12:39:15;;;;;;;6.10;5.50;;;;;;;21.59;51.04;94981.00;5963507;29;109998;-61
2023/05/27 12:42:20;;;;;;;6.07;5.57;;;;;;;21.59;51.03;94977.56;5971150;29;109340;-60
2023/05/27 12:45:25;;;;;;;6.00;5.50;;;;;;;21.57;51.10;94963.75;5971858;29;109437;-61
2023/05/27 12:48:29;;;;;;;6.83;6.33;;;;;;;21.58;50.95;94973.31;5971845;29;109370;-69
2023/05/27 12:51:33;;;;;;;6.85;6.25;;;;;;;21.57;50.73;94969.09;5961054;29;109131;-69
2023/05/27 12:54:36;;;;;;;6.50;6.00;;;;;;;21.54;51.18;94964.38;5971885;29;111519;-68
2023/05/27 12:57:41;;;;;;;6.60;6.00;;;;;;;21.54;50.37;94959.84;5971640;29;109130;-69
2023/05/27 13:00:45;;;;;;;6.20;5.70;;;;;;;21.56;50.49;94956.88;5971868;29;110399;-68
2023/05/27 13:03:48;;;;;;;5.60;5.20;;;;;;;21.54;51.05;94956.38;5961280;29;110081;-68
2023/05/27 13:06:51;;;;;;;6.30;5.80;;;;;;;21.54;50.90;94957.19;5971693;29;109080;-69
2023/05/27 13:09:55;;;;;;;6.00;5.50;;;;;;;21.52;50.85;94946.84;5971792;29;109683;-69
2023/05/27 13:13:02;;;;;;;5.80;5.40;;;;;;;21.53;50.40;94939.63;5966820;29;109524;-69
2023/05/27 13:16:05;;;;;;;5.93;5.53;;;;;;;21.50;50.42;94935.69;5966138;29;109189;-68
2023/05/27 13:19:09;;;;;;;6.00;5.60;;;;;;;21.50;50.97;94937.56;5971696;29;109333;-69
2023/05/27 13:22:13;;;;;;;5.45;5.05;;;;;;;21.49;50.72;94931.44;5970117;29;109140;-69
2023/05/27 13:25:17;;;;;;;6.17;5.60;;;;;;;21.51;50.51;94931.16;5960440;29;109342;-69
2023/05/27 13:28:22;;;;;;;6.45;5.95;;;;;;;21.50;50.48;94927.69;5970937;29;109150;-69
2023/05/27 13:31:25;;;;;;;6.00;5.50;;;;;;;21.50;50.88;94927.69;5971171;29;109105;-68
2023/05/27 13:34:29;;;;;;;5.90;5.50;;;;;;;21.49;50.86;94925.34;5971128;29;109026;-68
2023/05/27 13:37:32;;;;;;;6.00;5.50;;;;;;;21.49;50.79;94915.47;5960991;29;110345;-69
2023/05/27 13:40:36;;;;;;;5.40;5.00;;;;;;;21.50;50.60;94911.72;5970875;29;109046;-69
2023/05/27 13:43:40;;;;;;;6.20;5.60;;;;;;;21.50;50.65;94911.72;5970816;29;109187;-68
2023/05/27 13:46:43;;;;;;;5.50;5.00;;;;;;;21.50;50.92;94913.59;5968676;29;110229;-68
2023/05/27 13:49:47;;;;;;;5.80;5.20;;;;;;;21.46;50.82;94909.97;5963661;29;109117;-68
2023/05/27 13:52:50;;;;;;;5.97;5.47;;;;;;;21.44;50.70;94909.50;5970477;29;109404;-67
2023/05/27 13:55:54;;;;;;;5.60;5.20;;;;;;;21.44;50.49;94902.28;5970624;29;109161;-68
2023/05/27 13:59:02;;;;;;;5.68;5.25;;;;;;;21.47;50.33;94903.56;5960482;29;109345;-61
2023/05/27 14:02:07;;;;;;;6.17;5.57;;;;;;;21.44;50.56;94896.97;5970377;29;109324;-61
2023/05/27 14:05:12;;;;;;;6.40;5.90;;;;;;;21.46;50.36;94889.47;5970291;29;109361;-61
2023/05/27 14:08:16;;;;;;;5.65;5.15;;;;;;;21.48;50.82;94895.25;5970312;29;109220;-60
2023/05/27 14:11:21;;;;;;;5.60;5.20;;;;;;;21.48;50.19;94887.28;5960306;29;109215;-60
2023/05/27 14:14:26;;;;;;;6.30;5.80;;;;;;;21.48;50.21;94881.94;5970573;29;109467;-61